Time;durP1;ratioP1;P1;durP2;ratioP2;P2;SDS_P1;SDS_P2;PMS_P1;PMS_P2;Temp;Humidity;BMP_temperature;BMP_pressure;BME280_temperature;BME280_humidity;BME280_pressure;Samples;Min_cycle;Max_cycle;Signal;HPM_P1;HPM_P2
2021/01/10 00:01:49;;;;;;;36.15;16.55;;;;;;;;;;5027083;28;20467;-51
2021/01/10 00:04:15;;;;;;;38.03;16.10;;;;;;;;;;5020376;28;20045;-51
2021/01/10 00:06:41;;;;;;;39.90;17.25;;;;;;;;;;5028536;28;20392;-48
2021/01/10 00:09:07;;;;;;;36.78;16.33;;;;;;;;;;5026284;28;20029;-50
2021/01/10 00:11:33;;;;;;;34.60;16.15;;;;;;;;;;5024239;28;20029;-51
2021/01/10 00:13:59;;;;;;;36.35;17.23;;;;;;;;;;5027781;28;20087;-48
2021/01/10 00:16:25;;;;;;;39.42;17.95;;;;;;;;;;5026998;28;20084;-51
2021/01/10 00:18:51;;;;;;;36.42;17.52;;;;;;;;;;5024319;28;20022;-48
2021/01/10 00:21:17;;;;;;;39.28;18.35;;;;;;;;;;5028613;28;20025;-52
2021/01/10 00:23:43;;;;;;;35.88;17.40;;;;;;;;;;5028801;28;20021;-54
2021/01/10 00:26:09;;;;;;;38.45;18.33;;;;;;;;;;5026999;28;20029;-48
2021/01/10 00:28:35;;;;;;;38.80;17.30;;;;;;;;;;5027395;28;20030;-48
2021/01/10 00:31:00;;;;;;;36.38;16.25;;;;;;;;;;5027443;28;20094;-51
2021/01/10 00:33:26;;;;;;;36.00;16.35;;;;;;;;;;5030511;28;20032;-50
2021/01/10 00:35:52;;;;;;;35.60;16.13;;;;;;;;;;5039824;28;20033;-49
2021/01/10 00:38:18;;;;;;;39.80;18.38;;;;;;;;;;5027081;28;20025;-53
2021/01/10 00:40:44;;;;;;;37.67;17.17;;;;;;;;;;5021439;28;20041;-52
2021/01/10 00:43:10;;;;;;;37.13;16.63;;;;;;;;;;5009717;28;20021;-50
2021/01/10 00:45:36;;;;;;;43.67;18.80;;;;;;;;;;5008682;28;20034;-48
2021/01/10 00:48:02;;;;;;;41.15;18.58;;;;;;;;;;5013540;28;20025;-50
2021/01/10 00:50:28;;;;;;;36.58;16.92;;;;;;;;;;5027622;28;20025;-50
2021/01/10 00:52:54;;;;;;;40.50;18.45;;;;;;;;;;5028267;28;20029;-50
2021/01/10 00:55:20;;;;;;;40.53;18.17;;;;;;;;;;5013963;28;20037;-48
2021/01/10 00:57:47;;;;;;;42.08;17.65;;;;;;;;;;5007519;28;20026;-52
2021/01/10 01:00:13;;;;;;;39.53;17.13;;;;;;;;;;5026374;28;20022;-48
2021/01/10 01:02:39;;;;;;;43.25;17.58;;;;;;;;;;5014448;28;20046;-49
2021/01/10 01:05:06;;;;;;;43.05;18.77;;;;;;;;;;5018393;28;20068;-51
2021/01/10 01:07:32;;;;;;;40.65;18.00;;;;;;;;;;5024135;28;20036;-48
2021/01/10 01:09:58;;;;;;;41.03;18.95;;;;;;;;;;5025571;28;20022;-51
2021/01/10 01:12:24;;;;;;;34.90;16.92;;;;;;;;;;5025299;28;20029;-48
2021/01/10 01:14:50;;;;;;;38.58;16.70;;;;;;;;;;5023399;28;20040;-50
2021/01/10 01:17:18;;;;;;;42.50;18.00;;;;;;;;;;5023247;28;20030;-51
2021/01/10 01:19:44;;;;;;;41.58;18.02;;;;;;;;;;5007977;28;20022;-51
2021/01/10 01:22:10;;;;;;;36.40;16.42;;;;;;;;;;5008650;28;21126;-48
2021/01/10 01:24:36;;;;;;;38.95;17.48;;;;;;;;;;5012439;28;20032;-50
2021/01/10 01:27:02;;;;;;;41.90;17.85;;;;;;;;;;5013694;28;20022;-48
2021/01/10 01:29:28;;;;;;;38.15;16.33;;;;;;;;;;5026659;28;20040;-50
2021/01/10 01:31:54;;;;;;;37.70;17.38;;;;;;;;;;5026714;28;20473;-49
2021/01/10 01:34:20;;;;;;;40.75;17.35;;;;;;;;;;5025986;28;20033;-50
2021/01/10 01:36:46;;;;;;;38.45;16.27;;;;;;;;;;5018274;28;20021;-52
2021/01/10 01:39:12;;;;;;;41.28;17.55;;;;;;;;;;5015981;28;20030;-53
2021/01/10 01:41:38;;;;;;;41.65;17.80;;;;;;;;;;5019930;28;20049;-49
2021/01/10 01:44:05;;;;;;;36.78;16.65;;;;;;;;;;5009271;28;20022;-50
2021/01/10 01:46:32;;;;;;;37.92;17.17;;;;;;;;;;5020682;28;20500;-52
2021/01/10 01:48:59;;;;;;;34.83;16.35;;;;;;;;;;5025858;28;20504;-48
2021/01/10 01:51:26;;;;;;;36.72;16.15;;;;;;;;;;5007372;28;20072;-51
2021/01/10 01:53:52;;;;;;;34.50;16.48;;;;;;;;;;5020667;28;20041;-50
2021/01/10 01:56:18;;;;;;;37.13;16.38;;;;;;;;;;5026100;28;20033;-49
2021/01/10 01:58:58;;;;;;;37.03;15.32;;;;;;;;;;5026318;28;20013;-52
2021/01/10 02:01:28;;;;;;;36.53;16.27;;;;;;;;;;5018930;28;20488;-51
2021/01/10 02:04:00;;;;;;;32.75;15.43;;;;;;;;;;5021308;28;20378;-51
2021/01/10 02:06:27;;;;;;;36.90;16.75;;;;;;;;;;5019818;28;20034;-52
2021/01/10 02:08:57;;;;;;;38.72;16.48;;;;;;;;;;5023190;28;20041;-49
2021/01/10 02:11:26;;;;;;;31.27;15.75;;;;;;;;;;5009062;28;20042;-50
2021/01/10 02:13:53;;;;;;;33.13;15.95;;;;;;;;;;5023421;28;20443;-50
2021/01/10 02:16:19;;;;;;;34.78;15.60;;;;;;;;;;5018188;28;20084;-51
2021/01/10 02:18:45;;;;;;;35.97;15.88;;;;;;;;;;5025304;28;20033;-48
2021/01/10 02:21:12;;;;;;;33.40;16.55;;;;;;;;;;5006534;28;20377;-48
2021/01/10 02:23:39;;;;;;;33.65;15.13;;;;;;;;;;5008826;28;20050;-53
2021/01/10 02:26:06;;;;;;;30.83;14.95;;;;;;;;;;5026216;28;20079;-50
2021/01/10 02:28:33;;;;;;;37.70;15.95;;;;;;;;;;5024158;28;20033;-50
2021/01/10 02:31:00;;;;;;;33.28;16.27;;;;;;;;;;5020853;28;20043;-52
2021/01/10 02:33:45;;;;;;;34.53;15.82;;;;;;;;;;5027624;28;20401;-53
2021/01/10 02:36:26;;;;;;;31.88;14.75;;;;;;;;;;5009839;28;20381;-49
2021/01/10 02:39:06;;;;;;;36.70;15.57;;;;;;;;;;5026312;28;20029;-48
2021/01/10 02:41:39;;;;;;;31.27;15.13;;;;;;;;;;5020749;28;20046;-55
2021/01/10 02:44:23;;;;;;;31.55;14.57;;;;;;;;;;5010210;28;20027;-54
2021/01/10 02:46:50;;;;;;;33.83;15.35;;;;;;;;;;5023076;28;20049;-51
2021/01/10 02:49:16;;;;;;;31.52;15.45;;;;;;;;;;5024336;28;20117;-53
2021/01/10 02:51:42;;;;;;;29.05;13.25;;;;;;;;;;5020783;28;20034;-50
2021/01/10 02:54:09;;;;;;;36.50;15.50;;;;;;;;;;5006184;28;20042;-52
2021/01/10 02:56:35;;;;;;;27.35;13.57;;;;;;;;;;5009410;28;20026;-50
2021/01/10 02:59:02;;;;;;;31.77;14.98;;;;;;;;;;5026885;28;20056;-48
2021/01/10 03:01:28;;;;;;;31.45;15.68;;;;;;;;;;5028613;28;20063;-48
2021/01/10 03:03:54;;;;;;;31.23;14.63;;;;;;;;;;5016705;28;20033;-52
2021/01/10 03:06:20;;;;;;;30.35;14.88;;;;;;;;;;5018754;28;20026;-48
2021/01/10 03:08:47;;;;;;;32.67;13.60;;;;;;;;;;5010388;28;20034;-48
2021/01/10 03:11:13;;;;;;;32.28;14.13;;;;;;;;;;5016593;28;20408;-48
2021/01/10 03:13:39;;;;;;;28.67;13.27;;;;;;;;;;5020075;28;20036;-53
2021/01/10 03:16:05;;;;;;;30.38;13.85;;;;;;;;;;5017506;28;20360;-51
2021/01/10 03:18:31;;;;;;;29.60;13.43;;;;;;;;;;5022277;28;20021;-51
2021/01/10 03:20:57;;;;;;;29.38;13.27;;;;;;;;;;5018744;28;20080;-47
2021/01/10 03:23:23;;;;;;;33.67;14.70;;;;;;;;;;5019775;28;20025;-52
2021/01/10 03:25:49;;;;;;;29.42;12.52;;;;;;;;;;5030501;28;20041;-49
2021/01/10 03:28:15;;;;;;;36.70;13.68;;;;;;;;;;5025863;28;20029;-50
2021/01/10 03:30:41;;;;;;;26.55;13.88;;;;;;;;;;5009484;28;20029;-48
2021/01/10 03:33:06;;;;;;;29.30;12.93;;;;;;;;;;5011295;28;20025;-55
2021/01/10 03:35:34;;;;;;;29.13;13.45;;;;;;;;;;5028938;28;20029;-55
2021/01/10 03:38:00;;;;;;;27.20;12.80;;;;;;;;;;5027431;28;20717;-48
2021/01/10 03:40:26;;;;;;;28.38;12.98;;;;;;;;;;5012681;28;20029;-51
2021/01/10 03:42:52;;;;;;;27.95;12.60;;;;;;;;;;5012828;28;20092;-50
2021/01/10 03:45:18;;;;;;;30.58;12.88;;;;;;;;;;5025265;28;20037;-48
2021/01/10 03:47:45;;;;;;;30.10;11.70;;;;;;;;;;5026477;28;20017;-50
2021/01/10 03:50:11;;;;;;;27.40;11.77;;;;;;;;;;5028442;28;20076;-52
2021/01/10 03:52:37;;;;;;;27.80;12.25;;;;;;;;;;5024507;28;20017;-52
2021/01/10 03:55:04;;;;;;;26.23;11.38;;;;;;;;;;5021324;28;20064;-54
2021/01/10 03:57:30;;;;;;;23.88;11.10;;;;;;;;;;5021840;28;20132;-48
2021/01/10 03:59:56;;;;;;;22.25;11.23;;;;;;;;;;5014797;28;20534;-49
2021/01/10 04:02:22;;;;;;;22.52;11.63;;;;;;;;;;5010687;28;20022;-49
2021/01/10 04:04:48;;;;;;;23.42;11.30;;;;;;;;;;5015860;28;20022;-53
2021/01/10 04:07:14;;;;;;;22.15;10.65;;;;;;;;;;5026063;28;20033;-52
2021/01/10 04:09:40;;;;;;;21.08;10.43;;;;;;;;;;5028204;28;20038;-54
2021/01/10 04:12:06;;;;;;;21.80;10.90;;;;;;;;;;5027528;28;20679;-50
2021/01/10 04:14:32;;;;;;;20.00;10.55;;;;;;;;;;5026950;28;20029;-53
2021/01/10 04:16:58;;;;;;;23.05;11.10;;;;;;;;;;5024286;28;20045;-53
2021/01/10 04:19:24;;;;;;;21.10;10.75;;;;;;;;;;5028916;28;20029;-54
2021/01/10 04:21:50;;;;;;;19.10;10.15;;;;;;;;;;5028260;28;20033;-52
2021/01/10 04:24:16;;;;;;;21.67;10.25;;;;;;;;;;5027433;28;20022;-53
2021/01/10 04:26:46;;;;;;;20.20;10.55;;;;;;;;;;5027169;28;20053;-51
2021/01/10 04:29:13;;;;;;;18.40;10.40;;;;;;;;;;5017914;28;20113;-53
2021/01/10 04:31:39;;;;;;;20.77;9.85;;;;;;;;;;5015574;28;20044;-51
2021/01/10 04:34:05;;;;;;;21.27;10.52;;;;;;;;;;5021980;28;20163;-52
2021/01/10 04:36:31;;;;;;;21.83;10.18;;;;;;;;;;5025578;28;20476;-51
2021/01/10 04:38:58;;;;;;;20.77;11.18;;;;;;;;;;5024702;28;20121;-49
2021/01/10 04:41:24;;;;;;;22.00;11.15;;;;;;;;;;5020629;28;20049;-53
2021/01/10 04:43:50;;;;;;;21.55;10.60;;;;;;;;;;5017859;28;20030;-52
2021/01/10 04:46:17;;;;;;;18.33;10.32;;;;;;;;;;5021013;28;20052;-53
2021/01/10 04:48:44;;;;;;;22.83;11.30;;;;;;;;;;5028056;28;20033;-53
2021/01/10 04:51:13;;;;;;;25.85;11.45;;;;;;;;;;5024057;28;20033;-53
2021/01/10 04:53:41;;;;;;;21.88;10.55;;;;;;;;;;5017009;28;20041;-53
2021/01/10 04:56:09;;;;;;;22.20;11.18;;;;;;;;;;5007973;28;20044;-50
2021/01/10 04:58:36;;;;;;;24.52;10.20;;;;;;;;;;5008400;28;20033;-53
2021/01/10 05:01:03;;;;;;;20.17;10.13;;;;;;;;;;5016031;28;20111;-49
2021/01/10 05:03:31;;;;;;;19.27;9.07;;;;;;;;;;5028734;28;20706;-51
2021/01/10 05:05:57;;;;;;;18.73;10.00;;;;;;;;;;5027896;28;20033;-49
2021/01/10 05:08:25;;;;;;;17.23;9.50;;;;;;;;;;5027364;28;20037;-51
2021/01/10 05:10:51;;;;;;;23.05;9.52;;;;;;;;;;5024893;28;20116;-54
2021/01/10 05:13:17;;;;;;;20.17;9.73;;;;;;;;;;5015683;28;20037;-54
2021/01/10 05:15:44;;;;;;;19.75;9.05;;;;;;;;;;5011357;28;20393;-51
2021/01/10 05:18:11;;;;;;;19.90;10.13;;;;;;;;;;5016207;28;20584;-52
2021/01/10 05:20:37;;;;;;;17.20;9.32;;;;;;;;;;5011011;28;20025;-52
2021/01/10 05:23:03;;;;;;;17.98;9.93;;;;;;;;;;5016908;28;20042;-53
2021/01/10 05:25:29;;;;;;;18.33;9.05;;;;;;;;;;5027361;28;20030;-51
2021/01/10 05:27:56;;;;;;;18.17;9.05;;;;;;;;;;5020555;28;20032;-50
2021/01/10 05:30:32;;;;;;;18.08;9.20;;;;;;;;;;5009761;28;20034;-53
2021/01/10 05:32:59;;;;;;;16.63;8.80;;;;;;;;;;5020787;28;20531;-51
2021/01/10 05:35:25;;;;;;;18.42;9.98;;;;;;;;;;5026839;28;20029;-54
2021/01/10 05:37:55;;;;;;;18.73;9.85;;;;;;;;;;5021265;28;20060;-51
2021/01/10 05:40:28;;;;;;;20.00;9.13;;;;;;;;;;5020089;28;20432;-50
2021/01/10 05:42:54;;;;;;;21.05;9.80;;;;;;;;;;5023603;28;20050;-50
2021/01/10 05:45:32;;;;;;;21.10;9.85;;;;;;;;;;5010658;28;20036;-53
2021/01/10 05:48:07;;;;;;;21.02;10.77;;;;;;;;;;5026485;28;20052;-49
2021/01/10 05:50:33;;;;;;;22.02;10.85;;;;;;;;;;5023336;28;20033;-48
2021/01/10 05:53:00;;;;;;;24.40;11.02;;;;;;;;;;5014186;28;20646;-54
2021/01/10 05:55:26;;;;;;;20.67;10.55;;;;;;;;;;5023576;28;20029;-52
2021/01/10 05:57:54;;;;;;;26.23;11.75;;;;;;;;;;5007058;28;20033;-50
2021/01/10 06:00:30;;;;;;;21.08;11.13;;;;;;;;;;5006287;28;20105;-54
2021/01/10 06:03:00;;;;;;;21.35;11.05;;;;;;;;;;5011312;28;20532;-50
2021/01/10 06:05:26;;;;;;;15.82;8.27;;;;;;;;;;5021680;28;20045;-54
2021/01/10 06:07:52;;;;;;;19.48;9.70;;;;;;;;;;5007042;28;20030;-51
2021/01/10 06:10:28;;;;;;;19.55;9.60;;;;;;;;;;5006289;28;20045;-52
2021/01/10 06:13:07;;;;;;;17.98;9.18;;;;;;;;;;5008274;28;20092;-51
2021/01/10 06:15:34;;;;;;;22.73;10.48;;;;;;;;;;5019058;28;20152;-53
2021/01/10 06:18:01;;;;;;;21.50;10.68;;;;;;;;;;5012535;28;20049;-53
2021/01/10 06:20:28;;;;;;;25.02;11.20;;;;;;;;;;5026298;28;20470;-54
2021/01/10 06:22:55;;;;;;;31.73;13.02;;;;;;;;;;5026783;28;20044;-51
2021/01/10 06:25:22;;;;;;;30.67;13.27;;;;;;;;;;5025590;28;20067;-51
2021/01/10 06:27:55;;;;;;;33.80;14.15;;;;;;;;;;5020540;28;20029;-53
2021/01/10 06:30:23;;;;;;;30.98;13.88;;;;;;;;;;5016840;28;20064;-53
2021/01/10 06:32:51;;;;;;;27.73;13.25;;;;;;;;;;5010181;28;20041;-48
2021/01/10 06:35:17;;;;;;;29.60;13.82;;;;;;;;;;5031772;28;20036;-51
2021/01/10 06:37:44;;;;;;;30.95;13.43;;;;;;;;;;5012344;28;20120;-54
2021/01/10 06:40:12;;;;;;;27.85;13.40;;;;;;;;;;5016131;28;20061;-53
2021/01/10 06:42:42;;;;;;;25.98;12.65;;;;;;;;;;5019569;28;20750;-52
2021/01/10 06:45:09;;;;;;;32.70;14.10;;;;;;;;;;5022549;28;20060;-48
2021/01/10 06:47:35;;;;;;;29.05;13.57;;;;;;;;;;5030160;28;20352;-53
2021/01/10 06:50:01;;;;;;;34.17;13.80;;;;;;;;;;5030007;28;20079;-50
2021/01/10 06:52:27;;;;;;;30.50;13.45;;;;;;;;;;5015108;28;20029;-53
2021/01/10 06:54:54;;;;;;;27.27;13.30;;;;;;;;;;5029878;28;20078;-53
2021/01/10 06:57:20;;;;;;;26.67;12.98;;;;;;;;;;5015082;28;20072;-51
2021/01/10 06:59:56;;;;;;;25.67;12.70;;;;;;;;;;5009600;28;20026;-51
2021/01/10 07:02:22;;;;;;;28.58;13.07;;;;;;;;;;5024179;28;20036;-49
2021/01/10 07:04:54;;;;;;;29.17;12.95;;;;;;;;;;5029405;28;20044;-50
2021/01/10 07:07:38;;;;;;;27.02;12.70;;;;;;;;;;5027287;28;20021;-52
2021/01/10 07:10:05;;;;;;;28.00;13.18;;;;;;;;;;5022386;28;20064;-51
2021/01/10 07:12:31;;;;;;;30.10;13.45;;;;;;;;;;5021989;28;20048;-53
2021/01/10 07:15:22;;;;;;;29.15;13.68;;;;;;;;;;5029095;28;20067;-54
2021/01/10 07:18:00;;;;;;;27.60;13.50;;;;;;;;;;5027667;28;20116;-52
2021/01/10 07:20:31;;;;;;;28.58;13.23;;;;;;;;;;5029803;28;20026;-50
2021/01/10 07:23:17;;;;;;;23.52;11.15;;;;;;;;;;5020410;28;20026;-52
2021/01/10 07:25:44;;;;;;;20.73;10.95;;;;;;;;;;5026755;28;20037;-52
2021/01/10 07:28:28;;;;;;;21.13;9.73;;;;;;;;;;5029366;28;20120;-53
2021/01/10 07:31:11;;;;;;;25.67;11.55;;;;;;;;;;5028312;28;20040;-54
2021/01/10 07:33:37;;;;;;;24.58;11.93;;;;;;;;;;5026099;28;20055;-51
2021/01/10 07:36:04;;;;;;;25.75;12.38;;;;;;;;;;5017213;28;20045;-50
2021/01/10 07:38:31;;;;;;;23.35;11.88;;;;;;;;;;5015087;28;20052;-54
2021/01/10 07:41:17;;;;;;;22.83;9.80;;;;;;;;;;5016535;28;20049;-52
2021/01/10 07:43:53;;;;;;;21.33;10.82;;;;;;;;;;5027756;28;20039;-52
2021/01/10 07:46:38;;;;;;;17.67;9.48;;;;;;;;;;5026253;28;20037;-54
2021/01/10 07:49:06;;;;;;;20.70;10.10;;;;;;;;;;5028935;28;20099;-49
2021/01/10 07:51:32;;;;;;;14.25;7.97;;;;;;;;;;5029025;28;20055;-50
2021/01/10 07:54:00;;;;;;;15.25;7.93;;;;;;;;;;5022322;28;20541;-50
2021/01/10 07:56:26;;;;;;;17.85;8.50;;;;;;;;;;5015395;28;20022;-54
2021/01/10 07:59:12;;;;;;;14.70;8.80;;;;;;;;;;5015297;28;21604;-51
2021/01/10 08:01:50;;;;;;;16.92;8.15;;;;;;;;;;5022787;28;20021;-53
2021/01/10 08:04:33;;;;;;;14.25;7.95;;;;;;;;;;5020796;28;20047;-53
2021/01/10 08:06:59;;;;;;;14.00;7.68;;;;;;;;;;5021655;28;20036;-51
2021/01/10 08:09:32;;;;;;;14.35;7.97;;;;;;;;;;5018774;28;20037;-55
2021/01/10 08:11:59;;;;;;;14.25;7.70;;;;;;;;;;5022174;28;20466;-53
2021/01/10 08:14:25;;;;;;;15.32;8.48;;;;;;;;;;5024439;28;20025;-53
2021/01/10 08:16:51;;;;;;;15.18;8.40;;;;;;;;;;5013720;28;20056;-51
2021/01/10 08:19:17;;;;;;;16.77;8.40;;;;;;;;;;5026874;28;20026;-51
2021/01/10 08:21:43;;;;;;;17.75;9.40;;;;;;;;;;5027741;28;20061;-51
2021/01/10 08:24:09;;;;;;;18.15;9.40;;;;;;;;;;5022318;28;20488;-51
2021/01/10 08:26:39;;;;;;;17.52;9.82;;;;;;;;;;5024397;28;20022;-49
2021/01/10 08:29:08;;;;;;;17.25;9.27;;;;;;;;;;5028431;28;20025;-52
2021/01/10 08:31:34;;;;;;;20.98;9.75;;;;;;;;;;5015077;28;20026;-49
2021/01/10 08:34:06;;;;;;;16.33;8.80;;;;;;;;;;5027873;28;20036;-50
2021/01/10 08:36:33;;;;;;;19.77;10.52;;;;;;;;;;5013404;28;20032;-51
2021/01/10 08:39:19;;;;;;;17.55;9.80;;;;;;;;;;5027135;28;20029;-51
2021/01/10 08:41:47;;;;;;;24.27;12.20;;;;;;;;;;5021718;28;20080;-49
2021/01/10 08:44:14;;;;;;;18.25;9.75;;;;;;;;;;5027360;28;20695;-52
2021/01/10 08:46:42;;;;;;;18.95;10.20;;;;;;;;;;5023059;28;20042;-50
2021/01/10 08:49:08;;;;;;;18.95;10.18;;;;;;;;;;5019165;28;20079;-53
2021/01/10 08:51:38;;;;;;;20.25;10.85;;;;;;;;;;5028292;28;20037;-53
2021/01/10 08:54:08;;;;;;;18.25;10.38;;;;;;;;;;5016661;28;20028;-52
2021/01/10 08:56:34;;;;;;;15.43;9.55;;;;;;;;;;5028013;28;20036;-50
2021/01/10 08:59:00;;;;;;;16.88;8.93;;;;;;;;;;5028584;28;20479;-50
2021/01/10 09:01:26;;;;;;;17.92;10.27;;;;;;;;;;5028111;28;20025;-52
2021/01/10 09:03:56;;;;;;;17.15;10.18;;;;;;;;;;5027621;28;20040;-52
2021/01/10 09:06:42;;;;;;;19.23;10.50;;;;;;;;;;5014354;28;20024;-49
2021/01/10 09:09:13;;;;;;;17.85;9.57;;;;;;;;;;5012319;28;20057;-54
2021/01/10 09:11:41;;;;;;;16.33;8.63;;;;;;;;;;5027849;28;20033;-52
2021/01/10 09:14:07;;;;;;;16.25;8.95;;;;;;;;;;5026658;28;20037;-51
2021/01/10 09:16:34;;;;;;;17.83;8.93;;;;;;;;;;5028004;28;20485;-48
2021/01/10 09:19:01;;;;;;;18.67;9.13;;;;;;;;;;5027678;28;20100;-48
2021/01/10 09:21:27;;;;;;;15.95;9.50;;;;;;;;;;5027398;28;20052;-50
2021/01/10 09:23:56;;;;;;;19.50;10.02;;;;;;;;;;5027463;28;20029;-51
2021/01/10 09:26:29;;;;;;;20.00;10.98;;;;;;;;;;5028147;28;20114;-50
2021/01/10 09:28:56;;;;;;;21.20;11.43;;;;;;;;;;5026714;28;20033;-52
2021/01/10 09:31:36;;;;;;;21.63;12.05;;;;;;;;;;5027297;28;20052;-53
2021/01/10 09:34:04;;;;;;;26.35;13.70;;;;;;;;;;5029375;28;20710;-51
2021/01/10 09:36:31;;;;;;;16.58;9.82;;;;;;;;;;5026609;28;20045;-51
2021/01/10 09:38:57;;;;;;;16.60;9.60;;;;;;;;;;5027529;28;20040;-49
2021/01/10 09:41:23;;;;;;;15.82;8.85;;;;;;;;;;5027462;28;20055;-51
2021/01/10 09:43:52;;;;;;;17.45;9.75;;;;;;;;;;5026414;28;20564;-50
2021/01/10 09:46:22;;;;;;;16.48;9.40;;;;;;;;;;5022896;28;20369;-57
2021/01/10 09:48:49;;;;;;;20.05;10.10;;;;;;;;;;5028434;28;20037;-57
2021/01/10 09:51:15;;;;;;;16.48;9.27;;;;;;;;;;5027891;28;20142;-58
2021/01/10 09:53:40;;;;;;;15.65;9.25;;;;;;;;;;5018351;28;20033;-57
2021/01/10 09:56:06;;;;;;;15.18;9.30;;;;;;;;;;5027799;28;20034;-55
2021/01/10 09:58:33;;;;;;;15.55;8.48;;;;;;;;;;5027172;28;20022;-54
2021/01/10 10:00:59;;;;;;;15.95;8.32;;;;;;;;;;5027845;28;20026;-54
2021/01/10 10:03:26;;;;;;;13.18;7.70;;;;;;;;;;5024571;28;20053;-55
2021/01/10 10:05:58;;;;;;;14.25;7.55;;;;;;;;;;5025829;28;20115;-56
2021/01/10 10:08:24;;;;;;;14.25;8.85;;;;;;;;;;5019643;28;20036;-55
2021/01/10 10:10:50;;;;;;;12.30;7.32;;;;;;;;;;5023533;28;20445;-56
2021/01/10 10:13:23;;;;;;;14.32;7.60;;;;;;;;;;5016769;28;20038;-55
2021/01/10 10:15:51;;;;;;;;;;;;;;;;;;5017571;28;20056;-55
2021/01/10 10:18:19;;;;;;;13.68;7.47;;;;;;;;;;5024811;28;19956;-55
2021/01/10 10:20:45;;;;;;;13.68;7.63;;;;;;;;;;5016757;28;20045;-57
2021/01/10 10:23:13;;;;;;;11.60;6.90;;;;;;;;;;5017607;28;20036;-57
2021/01/10 10:25:40;;;;;;;12.63;6.97;;;;;;;;;;5015177;28;20830;-56
2021/01/10 10:28:07;;;;;;;11.77;6.40;;;;;;;;;;5012125;28;20030;-56
2021/01/10 10:30:33;;;;;;;12.05;6.75;;;;;;;;;;5019298;28;20061;-58
2021/01/10 10:33:00;;;;;;;13.65;7.00;;;;;;;;;;5020232;28;20044;-55
2021/01/10 10:35:25;;;;;;;12.50;6.25;;;;;;;;;;5022620;28;20063;-53
2021/01/10 10:37:52;;;;;;;12.15;6.90;;;;;;;;;;5013473;28;20045;-57
2021/01/10 10:40:18;;;;;;;13.50;6.68;;;;;;;;;;5025366;28;20037;-55
2021/01/10 10:42:44;;;;;;;15.05;7.00;;;;;;;;;;5023577;28;20056;-54
2021/01/10 10:45:10;;;;;;;12.68;6.97;;;;;;;;;;5024365;28;20083;-56
2021/01/10 10:47:36;;;;;;;10.95;6.63;;;;;;;;;;5026551;28;20033;-57
2021/01/10 10:50:03;;;;;;;12.07;6.88;;;;;;;;;;5022696;28;20034;-57
2021/01/10 10:52:29;;;;;;;13.15;6.97;;;;;;;;;;5012162;28;20029;-56
2021/01/10 10:54:55;;;;;;;10.85;6.28;;;;;;;;;;5024067;28;20096;-55
2021/01/10 10:57:21;;;;;;;11.10;6.07;;;;;;;;;;5018307;28;20026;-55
2021/01/10 10:59:47;;;;;;;10.57;6.55;;;;;;;;;;5021440;28;20355;-55
2021/01/10 11:02:13;;;;;;;10.25;5.68;;;;;;;;;;5021420;28;20038;-54
2021/01/10 11:04:41;;;;;;;51.55;28.70;;;;;;;;;;5021287;28;20029;-53
2021/01/10 11:07:07;;;;;;;10.70;5.85;;;;;;;;;;5023189;28;21571;-57
2021/01/10 11:09:33;;;;;;;10.73;6.32;;;;;;;;;;5021421;28;20029;-57
2021/01/10 11:11:59;;;;;;;17.20;9.73;;;;;;;;;;5013236;28;20391;-53
2021/01/10 11:14:25;;;;;;;10.75;6.72;;;;;;;;;;5018223;28;20026;-58
2021/01/10 11:16:53;;;;;;;12.40;6.88;;;;;;;;;;5022080;28;20060;-57
2021/01/10 11:19:19;;;;;;;11.90;6.13;;;;;;;;;;5024013;28;20033;-53
2021/01/10 11:21:46;;;;;;;10.02;5.47;;;;;;;;;;5030533;28;20481;-55
2021/01/10 11:24:13;;;;;;;9.05;5.32;;;;;;;;;;5031060;28;20355;-57
2021/01/10 11:26:40;;;;;;;10.98;5.97;;;;;;;;;;5030244;28;20025;-55
2021/01/10 11:29:06;;;;;;;11.07;5.93;;;;;;;;;;5026763;28;20032;-57
2021/01/10 11:31:33;;;;;;;8.98;5.30;;;;;;;;;;5028806;28;20041;-54
2021/01/10 11:33:59;;;;;;;11.85;6.07;;;;;;;;;;5038192;28;20508;-54
2021/01/10 11:36:25;;;;;;;10.82;6.22;;;;;;;;;;5032109;28;20029;-55
2021/01/10 11:38:51;;;;;;;11.35;6.78;;;;;;;;;;5027509;28;20034;-56
2021/01/10 11:41:18;;;;;;;10.18;5.97;;;;;;;;;;5030983;28;20060;-57
2021/01/10 11:43:44;;;;;;;10.23;5.63;;;;;;;;;;5025886;28;20048;-50
2021/01/10 11:46:10;;;;;;;14.85;6.45;;;;;;;;;;5031370;28;20102;-55
2021/01/10 11:48:37;;;;;;;11.45;6.18;;;;;;;;;;5033930;28;20029;-55
2021/01/10 11:51:05;;;;;;;11.93;6.95;;;;;;;;;;5036799;28;20030;-55
2021/01/10 11:53:31;;;;;;;11.13;6.32;;;;;;;;;;5029223;28;20038;-55
2021/01/10 11:55:58;;;;;;;11.18;6.13;;;;;;;;;;5030191;28;20408;-54
2021/01/10 11:58:24;;;;;;;15.48;7.03;;;;;;;;;;5030950;28;20040;-56
2021/01/10 12:00:50;;;;;;;11.70;6.75;;;;;;;;;;5027958;28;20029;-57
2021/01/10 12:03:17;;;;;;;10.60;6.00;;;;;;;;;;5030541;28;20112;-57
2021/01/10 12:05:43;;;;;;;12.10;6.57;;;;;;;;;;5025908;28;20049;-54
2021/01/10 12:08:09;;;;;;;10.20;6.55;;;;;;;;;;5030280;28;20100;-56
2021/01/10 12:10:35;;;;;;;10.90;5.97;;;;;;;;;;5026606;28;20025;-57
2021/01/10 12:13:03;;;;;;;9.45;6.30;;;;;;;;;;5029664;28;20033;-54
2021/01/10 12:15:29;;;;;;;8.70;5.50;;;;;;;;;;5027222;28;20382;-53
2021/01/10 12:17:55;;;;;;;11.75;6.38;;;;;;;;;;5010924;28;20032;-51
2021/01/10 12:20:21;;;;;;;12.13;6.47;;;;;;;;;;5028383;28;20030;-57
2021/01/10 12:22:47;;;;;;;12.95;6.85;;;;;;;;;;5027427;28;20084;-57
2021/01/10 12:25:13;;;;;;;12.15;6.72;;;;;;;;;;5030038;28;20374;-53
2021/01/10 12:27:39;;;;;;;11.73;6.97;;;;;;;;;;5030521;28;20728;-54
2021/01/10 12:30:05;;;;;;;13.02;6.88;;;;;;;;;;5029864;28;20025;-52
2021/01/10 12:32:38;;;;;;;11.80;6.97;;;;;;;;;;5028894;28;20477;-54
2021/01/10 12:35:05;;;;;;;11.23;7.22;;;;;;;;;;5035682;28;20354;-57
2021/01/10 12:37:31;;;;;;;11.98;7.45;;;;;;;;;;5029459;28;20041;-52
2021/01/10 12:39:57;;;;;;;14.60;7.95;;;;;;;;;;5029484;28;20760;-57
2021/01/10 12:42:23;;;;;;;11.70;7.78;;;;;;;;;;5028645;28;20037;-55
2021/01/10 12:44:50;;;;;;;14.50;7.72;;;;;;;;;;5021634;28;20029;-53
2021/01/10 12:47:16;;;;;;;12.55;8.10;;;;;;;;;;5023138;28;20036;-54
2021/01/10 12:49:42;;;;;;;14.93;8.60;;;;;;;;;;5025746;28;20477;-54
2021/01/10 12:52:08;;;;;;;12.50;7.82;;;;;;;;;;5021452;28;20034;-53
2021/01/10 12:54:34;;;;;;;15.30;9.30;;;;;;;;;;5024449;28;20020;-57
2021/01/10 12:57:00;;;;;;;14.05;8.43;;;;;;;;;;5018429;28;20030;-53
2021/01/10 12:59:26;;;;;;;16.02;8.32;;;;;;;;;;5019932;28;20527;-51
2021/01/10 13:01:51;;;;;;;15.48;8.57;;;;;;;;;;5022784;28;20033;-54
2021/01/10 13:04:17;;;;;;;15.60;8.23;;;;;;;;;;5024042;28;20401;-57
2021/01/10 13:06:44;;;;;;;15.23;8.75;;;;;;;;;;5023371;28;20053;-56
2021/01/10 13:09:09;;;;;;;16.17;8.73;;;;;;;;;;5016729;28;20045;-52
2021/01/10 13:11:35;;;;;;;14.77;9.05;;;;;;;;;;5021528;28;20025;-57
2021/01/10 13:14:01;;;;;;;16.60;9.20;;;;;;;;;;5024593;28;20026;-57
2021/01/10 13:16:27;;;;;;;13.90;8.75;;;;;;;;;;5016944;28;20041;-53
2021/01/10 13:18:53;;;;;;;17.20;9.07;;;;;;;;;;5021505;28;20088;-54
2021/01/10 13:21:19;;;;;;;15.88;8.77;;;;;;;;;;5022820;28;20025;-55
2021/01/10 13:23:47;;;;;;;14.90;8.77;;;;;;;;;;5024957;28;20030;-57
2021/01/10 13:26:16;;;;;;;14.82;8.95;;;;;;;;;;5021537;28;20032;-53
2021/01/10 13:28:42;;;;;;;16.88;9.32;;;;;;;;;;5027050;28;20040;-54
2021/01/10 13:31:08;;;;;;;14.57;8.45;;;;;;;;;;5024495;28;20401;-52
2021/01/10 13:33:34;;;;;;;16.13;9.98;;;;;;;;;;5029197;28;20457;-55
2021/01/10 13:36:00;;;;;;;18.70;10.95;;;;;;;;;;5016156;28;20033;-57
2021/01/10 13:38:26;;;;;;;16.98;9.13;;;;;;;;;;5018424;28;20029;-56
2021/01/10 13:40:52;;;;;;;19.25;9.73;;;;;;;;;;5025793;28;20087;-55
2021/01/10 13:43:18;;;;;;;16.15;9.40;;;;;;;;;;5022501;28;20017;-56
2021/01/10 13:45:45;;;;;;;16.38;9.48;;;;;;;;;;5025064;28;20025;-53
2021/01/10 13:48:11;;;;;;;14.00;9.02;;;;;;;;;;5024829;28;20468;-57
2021/01/10 13:50:37;;;;;;;15.93;9.15;;;;;;;;;;5022852;28;20034;-55
2021/01/10 13:53:03;;;;;;;19.70;9.90;;;;;;;;;;5021893;28;20021;-55
2021/01/10 13:55:29;;;;;;;18.70;9.80;;;;;;;;;;5028127;28;20025;-55
2021/01/10 13:57:54;;;;;;;14.77;8.43;;;;;;;;;;5025600;28;20032;-53
2021/01/10 14:00:21;;;;;;;17.55;9.73;;;;;;;;;;5015311;28;20025;-53
2021/01/10 14:02:47;;;;;;;14.27;8.75;;;;;;;;;;5028192;28;20040;-57
2021/01/10 14:05:14;;;;;;;17.60;10.15;;;;;;;;;;5028111;28;20055;-55
2021/01/10 14:07:41;;;;;;;17.02;9.57;;;;;;;;;;5022478;28;20118;-55
2021/01/10 14:10:07;;;;;;;15.35;9.25;;;;;;;;;;5020547;28;20120;-55
2021/01/10 14:12:34;;;;;;;16.33;9.68;;;;;;;;;;5018301;28;20029;-53
2021/01/10 14:14:59;;;;;;;16.25;9.35;;;;;;;;;;5026844;28;20138;-53
2021/01/10 14:17:25;;;;;;;16.85;9.73;;;;;;;;;;5022973;28;20033;-52
2021/01/10 14:19:51;;;;;;;17.20;9.73;;;;;;;;;;5020314;28;20029;-54
2021/01/10 14:22:17;;;;;;;18.23;11.00;;;;;;;;;;5024274;28;20052;-56
2021/01/10 14:24:43;;;;;;;21.65;10.68;;;;;;;;;;5026507;28;20036;-57
2021/01/10 14:27:09;;;;;;;15.30;8.98;;;;;;;;;;5024332;28;20025;-55